MSC Bremen — A8LK7 — position and weather

sailwx.info

Track history (hours):
 
Tides and Currents Weather Stations Pressure Air Temp Water Temp Dewpoint Dewpoint Depression Visibility Wind Speed Wind Dir Waves Ship Positions

MSC Bremen

Last reported at 2017-Mar-28 22:33 UTC. Time now 2017-Mar-28 23:22 UTC.
Position N 49°43' W 003°32'.

Length 294 m; ; draft 13.7 m.

Type: Ship (hazmat cat A). MMSI: 636091270.

Date/timePositionNaut miles runAvg speedWind from/ knotsBaromVisibWave heightAir tempDewpointWater temp
2017-Mar-28 22:33N 49°43' W 003°32'2019.0
2017-Mar-28 21:32N 49°42' W 004°03'97421.4
2017-Mar-27 00:00N 48°54' W 028°54'50921.2 250 / 161003.010.8 11.0-1.814.0
2017-Mar-26 00:00N 46°30' W 041°00'50721.1 250 / 201021.0 5.4 4.0-14.3 8.0
2017-Mar-25 00:00N 43°06' W 051°54'   270 / 261025.5 5.4 4.0-14.3 8.0
2017-Mar-22 14:20N 36°56' W 075°35'8 9.9
2017-Mar-22 13:31N 36°50' W 075°43'8 8.3
2017-Mar-22 12:33N 36°52' W 075°53'10 9.7
2017-Mar-22 11:33N 36°57' W 076°03'1411.3
2017-Mar-22 10:20N 36°56' W 076°20'5 6.1
2017-Mar-22 09:34N 36°52' W 076°19'0 0.1
2017-Mar-22 08:31N 36°51' W 076°19'0 0.0
2017-Mar-22 07:32N 36°51' W 076°19'0 0.0
2017-Mar-22 06:31N 36°51' W 076°19'0 0.0
2017-Mar-22 05:31N 36°51' W 076°19'0 0.0
2017-Mar-22 04:31N 36°51' W 076°19'0 0.0
2017-Mar-22 03:31N 36°51' W 076°19'0 0.0
2017-Mar-22 02:31N 36°51' W 076°19'0 0.0
2017-Mar-22 01:31N 36°51' W 076°19'0 0.0
2017-Mar-22 00:32N 36°51' W 076°19'0 0.0
2017-Mar-21 23:31N 36°51' W 076°19'0 0.0
2017-Mar-21 22:31N 36°51' W 076°19'0 0.0
2017-Mar-21 21:31N 36°51' W 076°19'0 0.0
2017-Mar-21 20:31N 36°51' W 076°19'0 0.0
2017-Mar-21 19:31N 36°51' W 076°19'0 0.0
2017-Mar-21 18:31N 36°51' W 076°19'0 0.0
2017-Mar-21 17:31N 36°51' W 076°19'4 3.9
2017-Mar-21 16:33N 36°55' W 076°20'9 9.1
2017-Mar-21 15:33N 36°59' W 076°10'7 6.6
2017-Mar-21 14:34N 37°01' W 076°02'1814.5
2017-Mar-21 13:18N 37°18' W 076°06'4716.8
2017-Mar-21 10:31N 38°05' W 076°13'5017.0
2017-Mar-21 07:33N 38°55' W 076°24'1514.3
2017-Mar-21 06:31N 39°10' W 076°25'9 9.0
2017-Mar-21 05:33N 39°15' W 076°34'1 0.4
2017-Mar-21 03:26N 39°15' W 076°33'0 0.0
2017-Mar-21 02:20N 39°15' W 076°33'0 0.0
2017-Mar-21 00:29N 39°15' W 076°33'0 0.0
2017-Mar-20 23:29N 39°15' W 076°33'0 0.0
2017-Mar-20 22:23N 39°15' W 076°33'0 0.0
2017-Mar-20 21:29N 39°15' W 076°33'0 0.0
2017-Mar-20 20:29N 39°15' W 076°33'0 0.0
2017-Mar-20 19:05N 39°15' W 076°33'0 0.0
2017-Mar-20 15:11N 39°15' W 076°33'0 0.0
2017-Mar-20 14:29N 39°15' W 076°33'0 0.0
2017-Mar-20 08:32N 39°15' W 076°33'4 3.6
2017-Mar-20 07:33N 39°12' W 076°30'1512.6
2017-Mar-20 06:23N 38°58' W 076°23'5318.6
2017-Mar-20 03:33N 38°06' W 076°13'6917.3
2017-Mar-19 23:33N 36°58' W 075°60'8 8.0
2017-Mar-19 22:33N 36°53' W 075°52'8 7.2
2017-Mar-19 21:25N 36°51' W 075°42'18510.1
2017-Mar-19 03:10N 39°35' W 073°54'  
Track history (hours):
 
Tides and Currents Weather Stations Pressure Air Temp Water Temp Dewpoint Dewpoint Depression Visibility Wind Speed Wind Dir Waves Ship Positions

MSC Bremen

Last reported at 2017-Mar-28 22:33 UTC. Time now 2017-Mar-28 23:22 UTC.
Position N 49°43' W 003°32'.

Length 294 m; ; draft 13.7 m.

Type: Ship (hazmat cat A). MMSI: 636091270.

Date/timePositionNaut miles runAvg speedWind from/ knotsBaromVisibWave heightAir tempDewpointWater temp
2017-Mar-28 22:33N 49°43' W 003°32'2019.0
2017-Mar-28 21:32N 49°42' W 004°03'97421.4
2017-Mar-27 00:00N 48°54' W 028°54'50921.2 250 / 161003.010.8 11.0-1.814.0
2017-Mar-26 00:00N 46°30' W 041°00'50721.1 250 / 201021.0 5.4 4.0-14.3 8.0
2017-Mar-25 00:00N 43°06' W 051°54'   270 / 261025.5 5.4 4.0-14.3 8.0
2017-Mar-22 14:20N 36°56' W 075°35'8 9.9
2017-Mar-22 13:31N 36°50' W 075°43'8 8.3
2017-Mar-22 12:33N 36°52' W 075°53'10 9.7
2017-Mar-22 11:33N 36°57' W 076°03'1411.3
2017-Mar-22 10:20N 36°56' W 076°20'5 6.1
2017-Mar-22 09:34N 36°52' W 076°19'0 0.1
2017-Mar-22 08:31N 36°51' W 076°19'0 0.0
2017-Mar-22 07:32N 36°51' W 076°19'0 0.0
2017-Mar-22 06:31N 36°51' W 076°19'0 0.0
2017-Mar-22 05:31N 36°51' W 076°19'0 0.0
2017-Mar-22 04:31N 36°51' W 076°19'0 0.0
2017-Mar-22 03:31N 36°51' W 076°19'0 0.0
2017-Mar-22 02:31N 36°51' W 076°19'0 0.0
2017-Mar-22 01:31N 36°51' W 076°19'0 0.0
2017-Mar-22 00:32N 36°51' W 076°19'0 0.0
2017-Mar-21 23:31N 36°51' W 076°19'0 0.0
2017-Mar-21 22:31N 36°51' W 076°19'0 0.0
2017-Mar-21 21:31N 36°51' W 076°19'0 0.0
2017-Mar-21 20:31N 36°51' W 076°19'0 0.0
2017-Mar-21 19:31N 36°51' W 076°19'0 0.0
2017-Mar-21 18:31N 36°51' W 076°19'0 0.0
2017-Mar-21 17:31N 36°51' W 076°19'4 3.9
2017-Mar-21 16:33N 36°55' W 076°20'9 9.1
2017-Mar-21 15:33N 36°59' W 076°10'7 6.6
2017-Mar-21 14:34N 37°01' W 076°02'1814.5
2017-Mar-21 13:18N 37°18' W 076°06'4716.8
2017-Mar-21 10:31N 38°05' W 076°13'5017.0
2017-Mar-21 07:33N 38°55' W 076°24'1514.3
2017-Mar-21 06:31N 39°10' W 076°25'9 9.0
2017-Mar-21 05:33N 39°15' W 076°34'1 0.4
2017-Mar-21 03:26N 39°15' W 076°33'0 0.0
2017-Mar-21 02:20N 39°15' W 076°33'0 0.0
2017-Mar-21 00:29N 39°15' W 076°33'0 0.0
2017-Mar-20 23:29N 39°15' W 076°33'0 0.0
2017-Mar-20 22:23N 39°15' W 076°33'0 0.0
2017-Mar-20 21:29N 39°15' W 076°33'0 0.0
2017-Mar-20 20:29N 39°15' W 076°33'0 0.0
2017-Mar-20 19:05N 39°15' W 076°33'0 0.0
2017-Mar-20 15:11N 39°15' W 076°33'0 0.0
2017-Mar-20 14:29N 39°15' W 076°33'0 0.0
2017-Mar-20 08:32N 39°15' W 076°33'4 3.6
2017-Mar-20 07:33N 39°12' W 076°30'1512.6
2017-Mar-20 06:23N 38°58' W 076°23'5318.6
2017-Mar-20 03:33N 38°06' W 076°13'6917.3
2017-Mar-19 23:33N 36°58' W 075°60'8 8.0
2017-Mar-19 22:33N 36°53' W 075°52'8 7.2
2017-Mar-19 21:25N 36°51' W 075°42'18510.1
2017-Mar-19 03:10N 39°35' W 073°54'  

Dump ship's entire track history